createdAt,value
2016-09-06T00:00:21.838Z,0
2016-09-06T00:01:21.783Z,0
2016-09-06T00:02:21.442Z,0
2016-09-06T00:03:21.735Z,0
2016-09-06T00:04:22.012Z,0
2016-09-06T00:05:21.314Z,0
2016-09-06T00:06:21.714Z,0
2016-09-06T00:07:21.284Z,0
2016-09-06T00:08:21.236Z,0
2016-09-06T00:09:21.581Z,0
2016-09-06T00:10:36.220Z,0
2016-09-06T00:11:21.190Z,0
2016-09-06T00:12:21.115Z,0
2016-09-06T00:13:21.115Z,0
2016-09-06T00:14:21.092Z,0
2016-09-06T00:15:21.068Z,0
2016-09-06T00:16:21.697Z,0
2016-09-06T00:17:21.045Z,0
2016-09-06T00:18:21.344Z,0
2016-09-06T00:19:35.675Z,0
2016-09-06T00:20:20.933Z,0
2016-09-06T00:21:35.598Z,0
2016-09-06T00:22:21.578Z,0
2016-09-06T00:23:20.838Z,0
2016-09-06T00:24:20.804Z,0
2016-09-06T00:25:20.829Z,0
2016-09-06T00:26:21.127Z,0
2016-09-06T00:27:20.761Z,0
2016-09-06T00:28:21.060Z,0
2016-09-06T00:29:20.821Z,0
2016-09-06T00:30:21.129Z,0
2016-09-06T00:31:20.655Z,0
2016-09-06T00:32:21.050Z,0
2016-09-06T00:33:20.596Z,0
2016-09-06T00:34:20.890Z,0
2016-09-06T00:35:20.524Z,0
2016-09-06T00:36:20.579Z,0
2016-09-06T00:37:35.219Z,0
2016-09-06T00:38:20.583Z,0
2016-09-06T00:39:35.206Z,0
2016-09-06T00:40:20.697Z,0
2016-09-06T00:41:20.401Z,0
2016-09-06T00:42:20.395Z,0
2016-09-06T00:43:20.768Z,0
2016-09-06T00:45:20.674Z,0
2016-09-06T00:46:20.568Z,0
2016-09-06T00:47:20.340Z,0
2016-09-06T00:48:20.240Z,0
2016-09-06T00:49:20.175Z,0
2016-09-06T00:50:20.145Z,0
2016-09-06T00:51:34.843Z,0
2016-09-06T00:52:20.429Z,0
2016-09-06T00:53:34.806Z,0
2016-09-06T00:54:20.074Z,0
2016-09-06T00:55:34.731Z,0
2016-09-06T00:56:20.020Z,0
2016-09-06T00:57:34.709Z,0
2016-09-06T00:58:20.246Z,0
2016-09-06T00:59:19.915Z,0
2016-09-06T01:00:19.892Z,0
2016-09-06T01:01:20.074Z,0
2016-09-06T01:02:19.937Z,0
2016-09-06T01:03:19.821Z,0
2016-09-06T01:04:20.098Z,0
2016-09-06T01:05:19.760Z,0
2016-09-06T01:06:19.764Z,0
2016-09-06T01:07:20.545Z,0
2016-09-06T01:08:34.398Z,0
2016-09-06T01:09:19.805Z,0
2016-09-06T01:10:20.318Z,0
2016-09-06T01:11:19.600Z,0
2016-09-06T01:12:19.606Z,0
2016-09-06T01:13:19.604Z,0
2016-09-06T01:14:19.612Z,0
2016-09-06T01:15:34.221Z,0
2016-09-06T01:16:19.784Z,0
2016-09-06T01:17:19.487Z,0
2016-09-06T01:18:19.463Z,0
2016-09-06T01:19:19.456Z,0
2016-09-06T01:20:19.397Z,0
2016-09-06T01:21:19.355Z,0
2016-09-06T01:22:20.000Z,0
2016-09-06T01:23:19.311Z,0
2016-09-06T01:24:34.049Z,0
2016-09-06T01:25:19.297Z,0
2016-09-06T01:26:33.955Z,0
2016-09-06T01:27:19.253Z,0
2016-09-06T01:28:34.217Z,0
2016-09-06T01:29:19.185Z,0
2016-09-06T01:30:35.153Z,0
2016-09-06T01:31:19.126Z,0
2016-09-06T01:32:19.067Z,0
2016-09-06T01:33:19.044Z,0
2016-09-06T01:34:19.318Z,0
2016-09-06T01:35:19.009Z,0
2016-09-06T01:36:19.064Z,0
2016-09-06T01:37:19.321Z,0
2016-09-06T01:38:18.980Z,0
2016-09-06T01:39:18.901Z,0
2016-09-06T01:40:19.177Z,0
2016-09-06T01:41:33.555Z,0
2016-09-06T01:42:18.829Z,0
2016-09-06T01:43:33.942Z,0
2016-09-06T01:44:18.749Z,0
2016-09-06T01:45:33.942Z,0
2016-09-06T01:46:19.046Z,0
2016-09-06T01:47:18.743Z,0
2016-09-06T01:48:18.661Z,0
2016-09-06T01:49:18.644Z,0
2016-09-06T01:50:18.637Z,0
2016-09-06T01:51:18.601Z,0
2016-09-06T01:52:33.572Z,0
2016-09-06T01:53:18.606Z,0
2016-09-06T01:54:18.513Z,0
2016-09-06T01:55:18.481Z,0
2016-09-06T01:56:18.820Z,0
2016-09-06T01:57:18.452Z,0
2016-09-06T01:58:18.836Z,0
2016-09-06T01:59:18.406Z,0
2016-09-06T02:00:18.348Z,0
2016-09-06T02:01:18.428Z,0
2016-09-06T02:02:18.300Z,0
2016-09-06T02:03:32.983Z,0
2016-09-06T02:04:18.538Z,0
2016-09-06T02:05:18.222Z,0
2016-09-06T02:06:18.221Z,0
2016-09-06T02:07:18.185Z,0
2016-09-06T02:08:18.594Z,0
2016-09-06T02:09:18.136Z,0
2016-09-06T02:10:33.095Z,0
2016-09-06T02:11:18.067Z,0
2016-09-06T02:12:32.772Z,0
2016-09-06T02:13:18.011Z,0
2016-09-06T02:14:17.998Z,0
2016-09-06T02:15:18.400Z,0
2016-09-06T02:16:18.605Z,0
2016-09-06T02:17:17.962Z,0
2016-09-06T02:18:17.892Z,0
2016-09-06T02:19:17.887Z,0
2016-09-06T02:20:18.273Z,0
2016-09-06T02:21:17.833Z,0
2016-09-06T02:22:18.110Z,0
2016-09-06T02:24:17.750Z,0
2016-09-06T02:25:17.730Z,0
2016-09-06T02:26:17.854Z,0
2016-09-06T02:27:17.663Z,0
2016-09-06T02:28:17.936Z,0
2016-09-06T02:29:18.256Z,0
2016-09-06T02:30:17.735Z,0
2016-09-06T02:31:17.932Z,0
2016-09-06T02:32:23.816Z,0
2016-09-06T02:33:17.497Z,0
2016-09-06T02:34:17.764Z,0
2016-09-06T02:35:17.448Z,0
2016-09-06T02:36:17.573Z,0
2016-09-06T02:37:32.514Z,0
2016-09-06T02:38:17.389Z,0
2016-09-06T02:39:17.376Z,0
2016-09-06T02:40:17.616Z,0
2016-09-06T02:41:17.801Z,0
2016-09-06T02:42:17.313Z,0
2016-09-06T02:43:17.271Z,0
2016-09-06T02:44:17.603Z,0
2016-09-06T02:45:17.187Z,0
2016-09-06T02:47:17.787Z,0
2016-09-06T02:48:17.489Z,0
2016-09-06T02:49:17.446Z,0
2016-09-06T02:50:17.100Z,0
2016-09-06T02:51:17.507Z,0
2016-09-06T02:52:17.346Z,0
2016-09-06T02:53:17.667Z,0
2016-09-06T02:54:16.956Z,0
2016-09-06T02:55:17.402Z,0
2016-09-06T02:56:16.903Z,0
2016-09-06T02:57:17.252Z,0
2016-09-06T02:58:17.545Z,0
2016-09-06T02:59:16.821Z,0
2016-09-06T03:00:16.789Z,0
2016-09-06T03:01:16.773Z,0
2016-09-06T03:02:16.743Z,0
2016-09-06T03:03:16.891Z,0
2016-09-06T03:04:17.069Z,0
2016-09-06T03:05:16.761Z,0
2016-09-06T03:06:16.738Z,0
2016-09-06T03:07:17.005Z,0
2016-09-06T03:08:17.326Z,0
2016-09-06T03:09:16.568Z,0
2016-09-06T03:10:31.583Z,0
2016-09-06T03:11:16.547Z,0
2016-09-06T03:12:16.602Z,0
2016-09-06T03:13:16.895Z,0
2016-09-06T03:14:16.435Z,0
2016-09-06T03:15:16.390Z,0
2016-09-06T03:16:16.658Z,0
2016-09-06T03:17:16.418Z,0
2016-09-06T03:18:16.316Z,0
2016-09-06T03:19:16.337Z,0
2016-09-06T03:20:16.645Z,0
2016-09-06T03:21:30.965Z,0
2016-09-06T03:22:16.909Z,0
2016-09-06T03:23:16.223Z,0
2016-09-06T03:24:16.237Z,0
2016-09-06T03:25:16.147Z,0
2016-09-06T03:26:16.124Z,0
2016-09-06T03:27:16.505Z,0
2016-09-06T03:28:21.845Z,0
2016-09-06T03:29:16.057Z,0
2016-09-06T03:30:16.015Z,0
2016-09-06T03:31:16.012Z,0
2016-09-06T03:32:15.961Z,0
2016-09-06T03:33:15.963Z,0
2016-09-06T03:34:16.207Z,0
2016-09-06T03:35:15.905Z,0
2016-09-06T03:36:15.857Z,0
2016-09-06T03:37:15.851Z,0
2016-09-06T03:38:15.828Z,0
2016-09-06T03:39:15.805Z,0
2016-09-06T03:40:16.034Z,0
2016-09-06T03:41:16.126Z,0
2016-09-06T03:42:16.129Z,0
2016-09-06T03:43:15.799Z,0
2016-09-06T03:44:15.672Z,0
2016-09-06T03:45:15.641Z,0
2016-09-06T03:46:30.649Z,0
2016-09-06T03:47:15.613Z,0
2016-09-06T03:48:30.255Z,0
2016-09-06T03:49:15.522Z,0
2016-09-06T03:50:30.273Z,0
2016-09-06T03:51:16.245Z,0
2016-09-06T03:52:15.493Z,0
2016-09-06T03:53:15.444Z,0
2016-09-06T03:54:15.789Z,0
2016-09-06T03:55:15.465Z,0
2016-09-06T03:56:15.329Z,0
2016-09-06T03:57:30.033Z,0
2016-09-06T03:58:15.988Z,0
2016-09-06T03:59:15.282Z,0
2016-09-06T04:00:15.254Z,0
2016-09-06T04:01:15.253Z,0
2016-09-06T04:02:15.207Z,0
2016-09-06T04:03:15.229Z,0
2016-09-06T04:04:15.854Z,0
2016-09-06T04:05:15.097Z,0
2016-09-06T04:06:29.811Z,0
2016-09-06T04:07:15.399Z,0
2016-09-06T04:08:29.792Z,0
2016-09-06T04:09:14.998Z,0
2016-09-06T04:10:30.664Z,0
2016-09-06T04:11:14.959Z,0
2016-09-06T04:12:29.809Z,0
2016-09-06T04:13:14.928Z,0
2016-09-06T04:14:14.849Z,0
2016-09-06T04:15:14.869Z,0
2016-09-06T04:16:15.479Z,0
2016-09-06T04:17:14.830Z,0
2016-09-06T04:18:14.790Z,0
2016-09-06T04:19:14.782Z,0
2016-09-06T04:20:14.701Z,0
2016-09-06T04:21:15.096Z,0
2016-09-06T04:22:15.343Z,0
2016-09-06T04:24:15.401Z,0
2016-09-06T04:25:14.620Z,0
2016-09-06T04:26:14.657Z,0
2016-09-06T04:27:14.573Z,0
2016-09-06T04:28:14.839Z,0
2016-09-06T04:29:14.472Z,0
2016-09-06T04:30:14.493Z,0
2016-09-06T04:31:14.462Z,0
2016-09-06T04:32:19.444Z,0
2016-09-06T04:33:14.383Z,0
2016-09-06T04:34:14.659Z,0
2016-09-06T04:35:14.933Z,0
2016-09-06T04:36:14.432Z,0
2016-09-06T04:37:14.236Z,0
2016-09-06T04:38:14.257Z,0
2016-09-06T04:39:14.247Z,0
2016-09-06T04:40:14.850Z,0
2016-09-06T04:41:14.194Z,0
2016-09-06T04:42:14.158Z,0
2016-09-06T04:43:14.108Z,0
2016-09-06T04:44:14.084Z,0
2016-09-06T04:45:29.251Z,0
2016-09-06T04:46:14.406Z,0
2016-09-06T04:47:28.767Z,0
2016-09-06T04:48:14.027Z,0
2016-09-06T04:49:13.957Z,0
2016-09-06T04:50:13.969Z,0
2016-09-06T04:51:13.991Z,0
2016-09-06T04:52:14.228Z,0
2016-09-06T04:53:13.874Z,0
2016-09-06T04:54:13.953Z,0
2016-09-06T04:55:13.795Z,0
2016-09-06T04:56:14.159Z,0
2016-09-06T04:57:14.099Z,0
2016-09-06T04:58:19.039Z,0
2016-09-06T04:59:13.707Z,0
2016-09-06T05:01:13.689Z,0
2016-09-06T05:02:13.570Z,0
2016-09-06T05:03:13.588Z,0
2016-09-06T05:04:14.663Z,0
2016-09-06T05:05:13.531Z,0
2016-09-06T05:06:13.482Z,0
2016-09-06T05:08:13.466Z,0
2016-09-06T05:09:13.538Z,0
2016-09-06T05:10:13.747Z,0
2016-09-06T05:11:13.390Z,0
2016-09-06T05:12:28.441Z,0
2016-09-06T05:13:28.029Z,0
2016-09-06T05:14:13.689Z,0
2016-09-06T05:15:13.385Z,0
2016-09-06T05:16:13.568Z,0
2016-09-06T05:17:13.264Z,0
2016-09-06T05:18:13.165Z,0
2016-09-06T05:19:13.655Z,0
2016-09-06T05:20:13.924Z,0
2016-09-06T05:21:13.105Z,0
2016-09-06T05:22:13.778Z,0
2016-09-06T05:23:13.047Z,0
2016-09-06T05:24:13.077Z,0
2016-09-06T05:25:13.010Z,0
2016-09-06T05:26:13.009Z,5
2016-09-06T05:27:12.947Z,5
2016-09-06T05:28:27.942Z,5
2016-09-06T05:29:12.885Z,5
2016-09-06T05:30:12.914Z,5
2016-09-06T05:31:13.129Z,5
2016-09-06T05:32:13.193Z,5
2016-09-06T05:33:12.776Z,5
2016-09-06T05:34:13.107Z,5
2016-09-06T05:36:12.720Z,5
2016-09-06T05:37:27.417Z,5
2016-09-06T05:38:13.017Z,5
2016-09-06T05:39:12.722Z,5
2016-09-06T05:40:13.014Z,5
2016-09-06T05:41:12.646Z,5
2016-09-06T05:42:12.673Z,5
2016-09-06T05:43:12.550Z,5
2016-09-06T05:44:12.535Z,5
2016-09-06T05:45:12.521Z,5
2016-09-06T05:46:27.510Z,5
2016-09-06T05:47:12.464Z,5
2016-09-06T05:48:12.479Z,5
2016-09-06T05:49:12.420Z,5
2016-09-06T05:50:12.862Z,5
2016-09-06T05:51:12.338Z,5
2016-09-06T05:52:12.651Z,5
2016-09-06T05:54:12.265Z,5
2016-09-06T05:55:12.691Z,5
2016-09-06T05:56:12.300Z,5
2016-09-06T05:57:12.275Z,10
2016-09-06T05:58:12.415Z,10
2016-09-06T05:59:12.186Z,10
2016-09-06T06:00:12.102Z,10
2016-09-06T06:01:12.069Z,10
2016-09-06T06:02:12.057Z,10
2016-09-06T06:03:12.110Z,10
2016-09-06T06:04:12.643Z,10
2016-09-06T06:05:12.305Z,10
2016-09-06T06:06:12.089Z,10
2016-09-06T06:07:12.297Z,10
2016-09-06T06:08:11.926Z,10
2016-09-06T06:09:11.895Z,10
2016-09-06T06:10:12.659Z,10
2016-09-06T06:11:12.402Z,10
2016-09-06T06:12:12.165Z,10
2016-09-06T06:13:12.106Z,10
2016-09-06T06:14:11.909Z,10
2016-09-06T06:15:12.095Z,10
2016-09-06T06:16:26.739Z,10
2016-09-06T06:17:11.744Z,15
2016-09-06T06:18:26.544Z,15
2016-09-06T06:19:11.733Z,15
2016-09-06T06:20:18.449Z,15
2016-09-06T06:21:13.098Z,15
2016-09-06T06:22:11.800Z,15
2016-09-06T06:23:11.966Z,15
2016-09-06T06:24:26.145Z,15
2016-09-06T06:25:12.058Z,15
2016-09-06T06:26:11.395Z,15
2016-09-06T06:27:26.076Z,15
2016-09-06T06:28:12.346Z,15
2016-09-06T06:29:12.474Z,10
2016-09-06T06:30:12.499Z,10
2016-09-06T06:31:11.672Z,10
2016-09-06T06:32:11.246Z,10
2016-09-06T06:33:11.702Z,15
2016-09-06T06:34:12.710Z,15
2016-09-06T06:35:12.861Z,15
2016-09-06T06:36:11.138Z,15
2016-09-06T06:37:11.383Z,15
2016-09-06T06:38:11.457Z,15
2016-09-06T06:39:11.112Z,15
2016-09-06T06:40:11.321Z,15
2016-09-06T06:41:11.068Z,15
2016-09-06T06:42:11.076Z,15
2016-09-06T06:43:11.028Z,15
2016-09-06T06:44:10.942Z,15
2016-09-06T06:45:11.028Z,15
2016-09-06T06:46:26.366Z,15
2016-09-06T06:47:11.281Z,15
2016-09-06T06:48:25.576Z,15
2016-09-06T06:49:10.900Z,15
2016-09-06T06:50:10.793Z,15
2016-09-06T06:51:11.152Z,15
2016-09-06T06:52:11.198Z,15
2016-09-06T06:53:10.872Z,15
2016-09-06T06:54:11.039Z,15
2016-09-06T06:55:25.391Z,15
2016-09-06T06:56:10.633Z,15
2016-09-06T06:57:10.769Z,15
2016-09-06T06:58:10.956Z,15
2016-09-06T06:59:10.539Z,15
2016-09-06T07:00:10.528Z,15
2016-09-06T07:01:10.521Z,20
2016-09-06T07:02:10.536Z,20
2016-09-06T07:03:25.184Z,15
2016-09-06T07:04:10.748Z,15
2016-09-06T07:05:10.810Z,15
2016-09-06T07:06:10.351Z,15
2016-09-06T07:07:11.339Z,15
2016-09-06T07:08:11.198Z,15
2016-09-06T07:09:10.317Z,15
2016-09-06T07:10:25.942Z,15
2016-09-06T07:11:10.597Z,15
2016-09-06T07:12:10.655Z,15
2016-09-06T07:13:10.263Z,20
2016-09-06T07:14:10.227Z,20
2016-09-06T07:15:10.226Z,20
2016-09-06T07:16:10.443Z,20
2016-09-06T07:17:10.136Z,20
2016-09-06T07:18:24.818Z,20
2016-09-06T07:19:10.225Z,20
2016-09-06T07:20:10.221Z,20
2016-09-06T07:21:15.802Z,20
2016-09-06T07:22:10.319Z,20
2016-09-06T07:23:09.998Z,20
2016-09-06T07:24:09.952Z,20
2016-09-06T07:25:10.528Z,20
2016-09-06T07:26:15.669Z,20
2016-09-06T07:27:09.938Z,20
2016-09-06T07:28:10.096Z,20
2016-09-06T07:29:10.175Z,20
2016-09-06T07:30:09.790Z,20
2016-09-06T07:31:09.766Z,20
2016-09-06T07:32:11.380Z,20
2016-09-06T07:33:10.561Z,20
2016-09-06T07:34:10.157Z,20
2016-09-06T07:35:09.827Z,20
2016-09-06T07:36:09.699Z,20
2016-09-06T07:37:10.032Z,25
2016-09-06T07:38:09.690Z,25
2016-09-06T07:39:09.789Z,25
2016-09-06T07:40:10.277Z,25
2016-09-06T07:41:09.833Z,25
2016-09-06T07:42:10.271Z,25
2016-09-06T07:43:09.921Z,25
2016-09-06T07:44:24.938Z,25
2016-09-06T07:45:10.219Z,25
2016-09-06T07:46:10.498Z,25
2016-09-06T07:47:10.455Z,25
2016-09-06T07:48:09.605Z,25
2016-09-06T07:50:09.879Z,25
2016-09-06T07:51:10.301Z,25
2016-09-06T07:52:09.651Z,25
2016-09-06T07:53:10.450Z,25
2016-09-06T07:54:09.302Z,25
2016-09-06T07:55:24.049Z,25
2016-09-06T07:56:09.849Z,25
2016-09-06T07:57:09.119Z,25
2016-09-06T07:58:10.059Z,25
2016-09-06T07:59:09.652Z,25
2016-09-06T08:00:09.530Z,25
2016-09-06T08:01:09.354Z,25
2016-09-06T08:02:09.596Z,25
2016-09-06T08:03:25.181Z,25
2016-09-06T08:04:09.946Z,25
2016-09-06T08:05:15.210Z,25
2016-09-06T08:06:08.953Z,25
2016-09-06T08:08:23.590Z,25
2016-09-06T08:09:23.558Z,25
2016-09-06T08:10:09.729Z,25
2016-09-06T08:11:08.822Z,25
2016-09-06T08:12:09.106Z,25
2016-09-06T08:13:10.053Z,25
2016-09-06T08:14:10.307Z,25
2016-09-06T08:15:11.044Z,25
2016-09-06T08:16:23.364Z,25
2016-09-06T08:17:08.683Z,25
2016-09-06T08:18:08.657Z,25
2016-09-06T08:19:08.946Z,25
2016-09-06T08:20:08.593Z,25
2016-09-06T08:21:09.548Z,25
2016-09-06T08:22:08.562Z,25
2016-09-06T08:23:08.470Z,25
2016-09-06T08:24:08.449Z,25
2016-09-06T08:25:08.822Z,25
2016-09-06T08:26:08.400Z,25
2016-09-06T08:27:09.132Z,25
2016-09-06T08:28:08.485Z,25
2016-09-06T08:29:08.446Z,25
2016-09-06T08:30:08.307Z,25
2016-09-06T08:31:08.278Z,25
2016-09-06T08:32:08.422Z,25
2016-09-06T08:33:09.242Z,25
2016-09-06T08:34:08.555Z,25
2016-09-06T08:35:08.257Z,25
2016-09-06T08:36:08.400Z,25
2016-09-06T08:37:08.765Z,25
2016-09-06T08:39:08.347Z,25
2016-09-06T08:40:08.182Z,25
2016-09-06T08:41:08.027Z,25
2016-09-06T08:42:08.108Z,25
2016-09-06T08:43:22.723Z,25
2016-09-06T08:44:07.951Z,25
2016-09-06T08:45:09.287Z,25
2016-09-06T08:46:07.899Z,25
2016-09-06T08:47:08.235Z,25
2016-09-06T08:48:08.278Z,25
2016-09-06T08:49:07.919Z,25
2016-09-06T08:50:07.787Z,25
2016-09-06T08:51:08.209Z,25
2016-09-06T08:52:07.787Z,25
2016-09-06T08:53:07.694Z,25
2016-09-06T08:54:07.711Z,25
2016-09-06T08:55:22.353Z,25
2016-09-06T08:56:22.898Z,25
2016-09-06T08:57:08.476Z,25
2016-09-06T08:58:07.712Z,25
2016-09-06T08:59:08.037Z,25
2016-09-06T09:00:07.590Z,25
2016-09-06T09:01:07.755Z,25
2016-09-06T09:02:07.542Z,25
2016-09-06T09:03:22.640Z,25
2016-09-06T09:04:08.619Z,25
2016-09-06T09:05:08.133Z,25
2016-09-06T09:06:07.546Z,25
2016-09-06T09:07:07.402Z,25
2016-09-06T09:08:07.908Z,25
2016-09-06T09:09:07.804Z,25
2016-09-06T09:10:07.749Z,25
2016-09-06T09:11:07.273Z,25
2016-09-06T09:12:22.098Z,25
2016-09-06T09:13:07.266Z,25
2016-09-06T09:14:07.652Z,25
2016-09-06T09:15:07.796Z,25
2016-09-06T09:16:07.604Z,25
2016-09-06T09:17:08.000Z,25
2016-09-06T09:18:21.813Z,25
2016-09-06T09:19:21.795Z,25
2016-09-06T09:20:21.858Z,25
2016-09-06T09:21:22.046Z,25
2016-09-06T09:22:07.463Z,25
2016-09-06T09:23:07.243Z,25
2016-09-06T09:24:21.836Z,25
2016-09-06T09:25:06.904Z,25
2016-09-06T09:26:07.557Z,25
2016-09-06T09:27:07.671Z,25
2016-09-06T09:28:07.114Z,25
2016-09-06T09:29:07.600Z,25
2016-09-06T09:30:21.805Z,25
2016-09-06T09:31:07.049Z,25
2016-09-06T09:32:21.510Z,25
2016-09-06T09:33:07.574Z,25
2016-09-06T09:34:07.211Z,25
2016-09-06T09:35:06.784Z,25
2016-09-06T09:36:06.790Z,25
2016-09-06T09:37:07.444Z,25
2016-09-06T09:38:07.518Z,25
2016-09-06T09:39:07.127Z,25
2016-09-06T09:40:07.054Z,25
2016-09-06T09:41:21.390Z,25
2016-09-06T09:42:06.979Z,25
2016-09-06T09:43:06.517Z,25
2016-09-06T09:44:06.526Z,25
2016-09-06T09:45:07.187Z,25
2016-09-06T09:46:06.652Z,25
2016-09-06T09:47:06.906Z,25
2016-09-06T09:48:06.719Z,25
2016-09-06T09:49:07.541Z,25
2016-09-06T09:50:08.176Z,25
2016-09-06T09:51:06.620Z,25
2016-09-06T09:52:06.485Z,25
2016-09-06T09:53:06.465Z,25
2016-09-06T09:54:06.239Z,25
2016-09-06T09:55:08.363Z,25
2016-09-06T09:56:06.201Z,25
2016-09-06T09:57:06.482Z,25
2016-09-06T09:58:06.225Z,25
2016-09-06T09:59:20.822Z,25
2016-09-06T10:00:06.041Z,25
2016-09-06T10:01:08.246Z,25
2016-09-06T10:03:06.863Z,25
2016-09-06T10:04:05.956Z,25
2016-09-06T10:05:06.394Z,25
2016-09-06T10:06:06.115Z,25
2016-09-06T10:07:06.241Z,25
2016-09-06T10:08:06.266Z,25
2016-09-06T10:09:06.171Z,25
2016-09-06T10:10:05.823Z,25
2016-09-06T10:11:06.469Z,25
2016-09-06T10:12:05.907Z,25
2016-09-06T10:13:05.769Z,25
2016-09-06T10:14:05.723Z,25
2016-09-06T10:15:05.996Z,25
2016-09-06T10:16:05.826Z,25
2016-09-06T10:17:05.660Z,25
2016-09-06T10:18:07.211Z,25
2016-09-06T10:19:05.975Z,25
2016-09-06T10:20:20.344Z,25
2016-09-06T10:21:06.324Z,30
2016-09-06T10:22:05.617Z,30
2016-09-06T10:23:05.563Z,25
2016-09-06T10:24:05.552Z,25
2016-09-06T10:25:05.490Z,25
2016-09-06T10:26:05.887Z,25
2016-09-06T10:27:05.933Z,25
2016-09-06T10:28:05.874Z,25
2016-09-06T10:29:06.022Z,25
2016-09-06T10:30:05.583Z,25
2016-09-06T10:31:20.045Z,25
2016-09-06T10:32:05.659Z,25
2016-09-06T10:33:20.288Z,25
2016-09-06T10:35:19.942Z,25
2016-09-06T10:36:05.559Z,25
2016-09-06T10:37:05.295Z,25
2016-09-06T10:38:05.154Z,25
2016-09-06T10:39:06.055Z,25
2016-09-06T10:40:19.797Z,25
2016-09-06T10:41:05.083Z,25
2016-09-06T10:43:05.184Z,25
2016-09-06T10:44:05.650Z,25
2016-09-06T10:45:06.615Z,25
2016-09-06T10:46:19.768Z,25
2016-09-06T10:47:04.990Z,25
2016-09-06T10:48:04.908Z,25
2016-09-06T10:49:04.895Z,25
2016-09-06T10:50:04.923Z,25
2016-09-06T10:51:05.417Z,25
2016-09-06T10:52:04.948Z,25
2016-09-06T10:53:04.960Z,25
2016-09-06T10:54:04.895Z,25
2016-09-06T10:55:04.987Z,25
2016-09-06T10:56:05.350Z,25
2016-09-06T10:57:05.533Z,25
2016-09-06T10:58:05.193Z,25
2016-09-06T10:59:04.681Z,25
2016-09-06T11:00:05.150Z,25
2016-09-06T11:01:19.326Z,30
2016-09-06T11:02:04.543Z,30
2016-09-06T11:03:04.831Z,30
2016-09-06T11:04:04.902Z,30
2016-09-06T11:05:34.301Z,30
2016-09-06T11:06:04.451Z,30
2016-09-06T11:07:04.821Z,30
2016-09-06T11:08:19.130Z,25
2016-09-06T11:09:05.760Z,25
2016-09-06T11:10:05.746Z,30
2016-09-06T11:11:04.354Z,30
2016-09-06T11:12:19.085Z,30
2016-09-06T11:13:04.682Z,30
2016-09-06T11:14:05.518Z,30
2016-09-06T11:15:04.589Z,30
2016-09-06T11:16:04.846Z,30
2016-09-06T11:17:04.247Z,30
2016-09-06T11:18:04.235Z,30
2016-09-06T11:19:04.563Z,30
2016-09-06T11:20:04.140Z,30
2016-09-06T11:21:19.341Z,30
2016-09-06T11:22:04.132Z,30
2016-09-06T11:23:04.051Z,30
2016-09-06T11:24:05.357Z,30
2016-09-06T11:25:04.480Z,30
2016-09-06T11:26:04.073Z,30
2016-09-06T11:27:04.282Z,30
2016-09-06T11:28:03.954Z,30
2016-09-06T11:29:03.948Z,30
2016-09-06T11:30:03.843Z,30
2016-09-06T11:31:18.702Z,30
2016-09-06T11:32:03.813Z,30
2016-09-06T11:33:18.911Z,30
2016-09-06T11:34:03.806Z,30
2016-09-06T11:35:03.762Z,30
2016-09-06T11:36:03.806Z,35
2016-09-06T11:37:03.686Z,35
2016-09-06T11:38:03.791Z,35
2016-09-06T11:39:04.096Z,35
2016-09-06T11:40:03.629Z,35
2016-09-06T11:41:03.989Z,40
2016-09-06T11:42:03.704Z,45
2016-09-06T11:43:03.659Z,65
2016-09-06T11:44:04.269Z,65
2016-09-06T11:45:03.914Z,55
2016-09-06T11:46:03.537Z,50
2016-09-06T11:47:03.576Z,35
2016-09-06T11:48:03.633Z,35
2016-09-06T11:49:04.436Z,35
2016-09-06T11:50:03.457Z,45
2016-09-06T11:51:04.098Z,50
2016-09-06T11:52:04.027Z,55
2016-09-06T11:54:03.301Z,35
2016-09-06T11:55:18.044Z,35
2016-09-06T11:56:03.843Z,35
2016-09-06T11:57:03.649Z,35
2016-09-06T11:58:04.824Z,40
2016-09-06T11:59:03.233Z,65
2016-09-06T12:00:03.196Z,260
2016-09-06T12:01:17.899Z,815
2016-09-06T12:02:03.113Z,755
2016-09-06T12:03:04.176Z,170
2016-09-06T12:04:03.197Z,90
2016-09-06T12:05:03.073Z,50
2016-09-06T12:06:03.035Z,75
2016-09-06T12:07:03.675Z,40
2016-09-06T12:08:03.394Z,45
2016-09-06T12:09:03.249Z,70
2016-09-06T12:10:03.010Z,150
2016-09-06T12:11:03.194Z,30
2016-09-06T12:12:02.931Z,105
2016-09-06T12:13:02.966Z,120
2016-09-06T12:14:02.880Z,50
2016-09-06T12:15:03.554Z,45
2016-09-06T12:16:02.855Z,45
2016-09-06T12:17:02.809Z,45
2016-09-06T12:18:02.746Z,45
2016-09-06T12:19:03.104Z,45
2016-09-06T12:20:03.175Z,45
2016-09-06T12:21:17.801Z,40
2016-09-06T12:22:03.286Z,40
2016-09-06T12:23:02.604Z,40
2016-09-06T12:24:02.688Z,40
2016-09-06T12:25:02.594Z,45
2016-09-06T12:26:02.883Z,40
2016-09-06T12:27:03.390Z,45
2016-09-06T12:28:02.583Z,45
2016-09-06T12:29:02.589Z,45
2016-09-06T12:30:02.568Z,40
2016-09-06T12:31:02.501Z,40
2016-09-06T12:32:17.198Z,40
2016-09-06T12:33:02.685Z,45
2016-09-06T12:34:02.421Z,40
2016-09-06T12:35:02.342Z,45
2016-09-06T12:36:02.419Z,40
2016-09-06T12:37:02.941Z,45
2016-09-06T12:38:03.358Z,40
2016-09-06T12:39:02.548Z,40
2016-09-06T12:40:02.284Z,40
2016-09-06T12:41:02.278Z,45
2016-09-06T12:42:02.551Z,35
2016-09-06T12:43:02.130Z,35
2016-09-06T12:44:02.224Z,35
2016-09-06T12:45:02.415Z,35
2016-09-06T12:46:02.090Z,35
2016-09-06T12:47:16.812Z,40
2016-09-06T12:48:02.140Z,35
2016-09-06T12:49:17.456Z,35
2016-09-06T12:50:02.583Z,40
2016-09-06T12:51:17.234Z,35
2016-09-06T12:52:01.940Z,40
2016-09-06T12:53:02.010Z,45
2016-09-06T12:54:01.936Z,45
2016-09-06T12:55:01.869Z,45
2016-09-06T12:56:02.238Z,40
2016-09-06T12:57:02.165Z,40
2016-09-06T12:58:02.701Z,40
2016-09-06T12:59:02.704Z,45
2016-09-06T13:00:02.226Z,55
2016-09-06T13:01:16.601Z,40
2016-09-06T13:02:01.886Z,50
2016-09-06T13:03:02.004Z,55
2016-09-06T13:04:02.038Z,45
2016-09-06T13:05:01.759Z,50
2016-09-06T13:06:16.327Z,45
2016-09-06T13:07:01.587Z,40
2016-09-06T13:08:01.632Z,40
2016-09-06T13:09:16.946Z,50
2016-09-06T13:10:02.529Z,55
2016-09-06T13:11:08.266Z,60
2016-09-06T13:12:01.471Z,50
2016-09-06T13:13:09.200Z,40
2016-09-06T13:14:01.482Z,40
2016-09-06T13:15:01.970Z,40
2016-09-06T13:16:02.025Z,40
2016-09-06T13:17:02.215Z,45
2016-09-06T13:18:01.447Z,45
2016-09-06T13:20:30.750Z,45
2016-09-06T13:23:01.634Z,60
2016-09-06T13:24:01.290Z,65
2016-09-06T13:25:01.386Z,105
2016-09-06T13:27:02.131Z,80
2016-09-06T13:28:16.355Z,75
2016-09-06T13:29:01.117Z,80
2016-09-06T13:30:01.131Z,90
2016-09-06T13:31:01.286Z,90
2016-09-06T13:32:01.411Z,70
2016-09-06T13:33:01.093Z,65
2016-09-06T13:34:01.058Z,65
2016-09-06T13:35:15.715Z,45
2016-09-06T13:36:01.363Z,45
2016-09-06T13:37:01.739Z,45
2016-09-06T13:38:01.576Z,60
2016-09-06T13:39:00.973Z,55
2016-09-06T13:40:00.851Z,60
2016-09-06T13:41:01.274Z,60
2016-09-06T13:42:30.236Z,45
2016-09-06T13:43:01.814Z,45
2016-09-06T13:44:01.047Z,45
2016-09-06T13:45:00.951Z,50
2016-09-06T13:46:15.418Z,45
2016-09-06T13:47:00.805Z,45
2016-09-06T13:48:00.767Z,55
2016-09-06T13:49:00.943Z,60
2016-09-06T13:50:01.032Z,55
2016-09-06T13:51:00.818Z,75
2016-09-06T13:52:00.613Z,85
2016-09-06T13:53:00.718Z,100
2016-09-06T13:54:00.692Z,135
2016-09-06T13:57:00.919Z,100
2016-09-06T13:58:00.847Z,80
2016-09-06T13:59:00.443Z,80
2016-09-06T14:00:01.236Z,75
2016-09-06T14:01:00.565Z,95
2016-09-06T14:02:00.708Z,135
2016-09-06T14:03:00.355Z,175
2016-09-06T14:04:15.035Z,185
2016-09-06T14:05:00.354Z,150
2016-09-06T14:06:00.519Z,105
2016-09-06T14:07:00.421Z,140
2016-09-06T14:08:00.959Z,190
2016-09-06T14:09:14.949Z,215
2016-09-06T14:10:00.691Z,200
2016-09-06T14:11:00.493Z,180
2016-09-06T14:12:00.324Z,205
2016-09-06T14:13:00.262Z,190
2016-09-06T14:14:00.505Z,205
2016-09-06T14:15:00.351Z,160
2016-09-06T14:16:00.355Z,125
2016-09-06T14:17:14.797Z,90
2016-09-06T14:18:00.056Z,85
2016-09-06T14:19:00.451Z,140
2016-09-06T14:20:00.481Z,190
2016-09-06T14:21:00.406Z,210
2016-09-06T14:22:00.029Z,180
2016-09-06T14:23:00.510Z,140
2016-09-06T14:24:00.328Z,120
2016-09-06T14:25:06.646Z,130
2016-09-06T14:26:00.823Z,165
2016-09-06T14:27:14.612Z,90
2016-09-06T14:28:00.336Z,80
2016-09-06T14:29:14.551Z,70
2016-09-06T14:29:59.885Z,100
2016-09-06T14:30:59.844Z,140
2016-09-06T14:32:00.215Z,55
2016-09-06T14:32:59.861Z,50
2016-09-06T14:33:59.795Z,50
2016-09-06T14:34:59.750Z,50
2016-09-06T14:35:59.750Z,40
2016-09-06T14:37:00.140Z,40
2016-09-06T14:38:00.451Z,40
2016-09-06T14:39:00.194Z,40
2016-09-06T14:39:59.697Z,40
2016-09-06T14:41:15.159Z,100
2016-09-06T14:41:59.729Z,155
2016-09-06T14:42:59.605Z,95
2016-09-06T14:44:00.661Z,40
2016-09-06T14:44:59.994Z,40
2016-09-06T14:45:59.917Z,35
2016-09-06T14:46:59.640Z,35